Keene, New York
Current Conditions -  °F | °C
As of 7:51 PM on Tuesday 25 Nov 2014 (Local Time) from KSLK Reporting Station
Overcast Overcast  
Wind Chill: 25°   Ceiling: 1800
Heat Index: 34°   Visibility: 10mi
Dew Point: 29°   Wind: 12mph
Humidity: 82%   Direction: 250°WSW
Pressure: 29.95"   Gusts: 23mph
Location:  44.26°N, 73.79°W
Report Text: KSLK 260051Z AUTO 25010G20KT 10SM BKN018 OVC023 01/M02 A2995 RMK AO2 PK WND 24026/0031 SNE04 SLP156 P0000 T00111017
Loading
Personal Weather Stations






























Interactive Weather Map New forecast layout! Learn more

10-Day Weather Forecast

Advertisements
Track Severe Weather on mobile